sensor_id;sensor_type;location;lat;lon;timestamp;temperature;humidity
11214;DHT22;5664;48.606;13.456;2022-11-23T00:01:30;21.50;66.50
11214;DHT22;5664;48.606;13.456;2022-11-23T00:03:58;21.40;66.60
11214;DHT22;5664;48.606;13.456;2022-11-23T00:06:24;21.40;66.70
11214;DHT22;5664;48.606;13.456;2022-11-23T00:08:51;21.40;66.80
11214;DHT22;5664;48.606;13.456;2022-11-23T00:11:16;21.40;66.90
11214;DHT22;5664;48.606;13.456;2022-11-23T00:13:43;21.30;67.00
11214;DHT22;5664;48.606;13.456;2022-11-23T00:16:11;21.30;67.00
11214;DHT22;5664;48.606;13.456;2022-11-23T00:18:37;21.30;67.10
11214;DHT22;5664;48.606;13.456;2022-11-23T00:21:06;21.30;67.10
11214;DHT22;5664;48.606;13.456;2022-11-23T00:23:32;21.30;67.20
11214;DHT22;5664;48.606;13.456;2022-11-23T00:25:57;21.20;67.20
11214;DHT22;5664;48.606;13.456;2022-11-23T00:28:23;21.20;67.20
11214;DHT22;5664;48.606;13.456;2022-11-23T00:30:48;21.20;67.20
11214;DHT22;5664;48.606;13.456;2022-11-23T00:33:15;21.20;67.30
11214;DHT22;5664;48.606;13.456;2022-11-23T00:35:40;21.20;67.30
11214;DHT22;5664;48.606;13.456;2022-11-23T00:38:06;21.20;67.30
11214;DHT22;5664;48.606;13.456;2022-11-23T00:40:31;21.20;67.30
11214;DHT22;5664;48.606;13.456;2022-11-23T00:42:57;21.10;67.30
11214;DHT22;5664;48.606;13.456;2022-11-23T00:45:22;21.10;67.30
11214;DHT22;5664;48.606;13.456;2022-11-23T00:47:47;21.10;67.30
11214;DHT22;5664;48.606;13.456;2022-11-23T00:50:13;21.10;67.40
11214;DHT22;5664;48.606;13.456;2022-11-23T00:52:38;21.10;67.40
11214;DHT22;5664;48.606;13.456;2022-11-23T00:55:04;21.10;67.40
11214;DHT22;5664;48.606;13.456;2022-11-23T00:57:30;21.10;67.50
11214;DHT22;5664;48.606;13.456;2022-11-23T00:59:57;21.10;67.40
11214;DHT22;5664;48.606;13.456;2022-11-23T01:02:22;21.10;67.40
11214;DHT22;5664;48.606;13.456;2022-11-23T01:04:48;21.10;67.40
11214;DHT22;5664;48.606;13.456;2022-11-23T01:07:13;21.10;67.50
11214;DHT22;5664;48.606;13.456;2022-11-23T01:09:38;21.10;67.50
11214;DHT22;5664;48.606;13.456;2022-11-23T01:12:04;21.00;67.50
11214;DHT22;5664;48.606;13.456;2022-11-23T01:14:29;21.00;67.40
11214;DHT22;5664;48.606;13.456;2022-11-23T01:16:55;21.00;67.40
11214;DHT22;5664;48.606;13.456;2022-11-23T01:19:20;21.00;67.40
11214;DHT22;5664;48.606;13.456;2022-11-23T01:21:46;21.00;67.40
11214;DHT22;5664;48.606;13.456;2022-11-23T01:24:20;21.00;67.40
11214;DHT22;5664;48.606;13.456;2022-11-23T01:26:49;21.00;67.50
11214;DHT22;5664;48.606;13.456;2022-11-23T01:29:15;21.00;67.40
11214;DHT22;5664;48.606;13.456;2022-11-23T01:31:40;21.00;67.40
11214;DHT22;5664;48.606;13.456;2022-11-23T01:34:06;21.00;67.40
11214;DHT22;5664;48.606;13.456;2022-11-23T01:36:32;21.00;67.40
11214;DHT22;5664;48.606;13.456;2022-11-23T01:38:58;21.00;67.50
11214;DHT22;5664;48.606;13.456;2022-11-23T01:41:25;21.00;68.20
11214;DHT22;5664;48.606;13.456;2022-11-23T01:43:51;21.00;67.40
11214;DHT22;5664;48.606;13.456;2022-11-23T01:46:17;20.90;67.30
11214;DHT22;5664;48.606;13.456;2022-11-23T01:51:10;21.00;67.40
11214;DHT22;5664;48.606;13.456;2022-11-23T01:53:37;20.90;67.30
11214;DHT22;5664;48.606;13.456;2022-11-23T01:56:03;20.90;67.30
11214;DHT22;5664;48.606;13.456;2022-11-23T01:58:31;20.90;67.30
11214;DHT22;5664;48.606;13.456;2022-11-23T02:00:57;21.00;67.40
11214;DHT22;5664;48.606;13.456;2022-11-23T02:03:23;20.90;67.30
11214;DHT22;5664;48.606;13.456;2022-11-23T02:05:49;21.00;67.40
11214;DHT22;5664;48.606;13.456;2022-11-23T02:08:18;20.90;67.30
11214;DHT22;5664;48.606;13.456;2022-11-23T02:10:44;20.90;67.30
11214;DHT22;5664;48.606;13.456;2022-11-23T02:13:10;20.90;67.30
11214;DHT22;5664;48.606;13.456;2022-11-23T02:15:36;20.90;67.30
11214;DHT22;5664;48.606;13.456;2022-11-23T02:18:03;20.90;67.30
11214;DHT22;5664;48.606;13.456;2022-11-23T02:20:30;20.90;67.30
11214;DHT22;5664;48.606;13.456;2022-11-23T02:23:14;20.90;67.30
11214;DHT22;5664;48.606;13.456;2022-11-23T02:28:07;20.90;67.30
11214;DHT22;5664;48.606;13.456;2022-11-23T02:30:33;20.90;67.30
11214;DHT22;5664;48.606;13.456;2022-11-23T02:33:00;20.90;67.30
11214;DHT22;5664;48.606;13.456;2022-11-23T02:35:27;20.90;67.30
11214;DHT22;5664;48.606;13.456;2022-11-23T02:37:52;20.90;67.40
11214;DHT22;5664;48.606;13.456;2022-11-23T02:40:26;20.90;67.30
11214;DHT22;5664;48.606;13.456;2022-11-23T02:42:52;20.90;67.30
11214;DHT22;5664;48.606;13.456;2022-11-23T02:45:23;20.90;67.40
11214;DHT22;5664;48.606;13.456;2022-11-23T02:47:51;20.60;67.10
11214;DHT22;5664;48.606;13.456;2022-11-23T02:50:17;20.90;67.30
11214;DHT22;5664;48.606;13.456;2022-11-23T02:52:42;20.90;67.30
11214;DHT22;5664;48.606;13.456;2022-11-23T02:55:08;20.90;67.30
11214;DHT22;5664;48.606;13.456;2022-11-23T02:57:34;20.80;67.30
11214;DHT22;5664;48.606;13.456;2022-11-23T02:59:59;20.90;67.30
11214;DHT22;5664;48.606;13.456;2022-11-23T03:02:25;20.80;67.20
11214;DHT22;5664;48.606;13.456;2022-11-23T03:04:50;20.80;67.30
11214;DHT22;5664;48.606;13.456;2022-11-23T03:07:15;20.80;67.30
11214;DHT22;5664;48.606;13.456;2022-11-23T03:09:41;20.80;67.30
11214;DHT22;5664;48.606;13.456;2022-11-23T03:12:06;20.80;67.30
11214;DHT22;5664;48.606;13.456;2022-11-23T03:14:32;20.80;67.20
11214;DHT22;5664;48.606;13.456;2022-11-23T03:16:58;20.80;67.30
11214;DHT22;5664;48.606;13.456;2022-11-23T03:19:23;20.80;67.20
11214;DHT22;5664;48.606;13.456;2022-11-23T03:21:49;20.80;67.20
11214;DHT22;5664;48.606;13.456;2022-11-23T03:24:14;20.80;67.20
11214;DHT22;5664;48.606;13.456;2022-11-23T03:26:41;20.80;67.20
11214;DHT22;5664;48.606;13.456;2022-11-23T03:29:07;20.80;67.20
11214;DHT22;5664;48.606;13.456;2022-11-23T03:31:33;20.80;67.20
11214;DHT22;5664;48.606;13.456;2022-11-23T03:33:58;20.80;67.20
11214;DHT22;5664;48.606;13.456;2022-11-23T03:36:24;20.80;67.10
11214;DHT22;5664;48.606;13.456;2022-11-23T03:38:49;20.80;67.10
11214;DHT22;5664;48.606;13.456;2022-11-23T03:41:14;20.80;67.20
11214;DHT22;5664;48.606;13.456;2022-11-23T03:43:40;20.80;67.10
11214;DHT22;5664;48.606;13.456;2022-11-23T03:46:05;20.80;67.10
11214;DHT22;5664;48.606;13.456;2022-11-23T03:48:31;20.80;67.10
11214;DHT22;5664;48.606;13.456;2022-11-23T03:50:56;20.80;67.10
11214;DHT22;5664;48.606;13.456;2022-11-23T03:53:22;20.80;67.10
11214;DHT22;5664;48.606;13.456;2022-11-23T03:55:47;20.80;67.10
11214;DHT22;5664;48.606;13.456;2022-11-23T03:58:12;20.80;67.10
11214;DHT22;5664;48.606;13.456;2022-11-23T04:00:39;20.80;67.10
11214;DHT22;5664;48.606;13.456;2022-11-23T04:03:04;20.80;67.10
11214;DHT22;5664;48.606;13.456;2022-11-23T04:05:30;20.80;67.00
11214;DHT22;5664;48.606;13.456;2022-11-23T04:07:55;20.80;67.10
11214;DHT22;5664;48.606;13.456;2022-11-23T04:10:21;20.80;67.10
11214;DHT22;5664;48.606;13.456;2022-11-23T04:12:50;20.80;67.10
11214;DHT22;5664;48.606;13.456;2022-11-23T04:15:16;20.80;67.00
11214;DHT22;5664;48.606;13.456;2022-11-23T04:17:41;20.80;67.00
11214;DHT22;5664;48.606;13.456;2022-11-23T04:20:07;20.80;67.80
11214;DHT22;5664;48.606;13.456;2022-11-23T04:22:32;20.80;67.00
11214;DHT22;5664;48.606;13.456;2022-11-23T04:24:58;20.80;67.00
11214;DHT22;5664;48.606;13.456;2022-11-23T04:27:23;20.80;67.00
11214;DHT22;5664;48.606;13.456;2022-11-23T04:29:49;20.80;67.00
11214;DHT22;5664;48.606;13.456;2022-11-23T04:32:14;20.80;67.00
11214;DHT22;5664;48.606;13.456;2022-11-23T04:34:40;20.80;67.00
11214;DHT22;5664;48.606;13.456;2022-11-23T04:37:05;20.80;67.00
11214;DHT22;5664;48.606;13.456;2022-11-23T04:39:31;20.80;67.00
11214;DHT22;5664;48.606;13.456;2022-11-23T04:41:56;20.80;67.00
11214;DHT22;5664;48.606;13.456;2022-11-23T04:44:21;20.80;67.80
11214;DHT22;5664;48.606;13.456;2022-11-23T04:46:47;20.80;67.00
11214;DHT22;5664;48.606;13.456;2022-11-23T04:49:14;20.80;67.00
11214;DHT22;5664;48.606;13.456;2022-11-23T04:51:40;20.80;67.00
11214;DHT22;5664;48.606;13.456;2022-11-23T04:54:05;20.80;67.00
11214;DHT22;5664;48.606;13.456;2022-11-23T04:56:31;20.80;67.00
11214;DHT22;5664;48.606;13.456;2022-11-23T04:58:56;20.70;66.90
11214;DHT22;5664;48.606;13.456;2022-11-23T05:01:22;20.70;66.90
11214;DHT22;5664;48.606;13.456;2022-11-23T05:03:47;20.80;67.00
11214;DHT22;5664;48.606;13.456;2022-11-23T05:06:13;20.70;66.90
11214;DHT22;5664;48.606;13.456;2022-11-23T05:08:38;20.70;66.90
11214;DHT22;5664;48.606;13.456;2022-11-23T05:11:04;20.70;66.90
11214;DHT22;5664;48.606;13.456;2022-11-23T05:13:29;20.70;67.00
11214;DHT22;5664;48.606;13.456;2022-11-23T05:15:55;20.70;67.00
11214;DHT22;5664;48.606;13.456;2022-11-23T05:18:20;20.70;67.10
11214;DHT22;5664;48.606;13.456;2022-11-23T05:20:46;20.70;67.20
11214;DHT22;5664;48.606;13.456;2022-11-23T05:23:11;20.70;67.40
11214;DHT22;5664;48.606;13.456;2022-11-23T05:25:37;20.70;67.40
11214;DHT22;5664;48.606;13.456;2022-11-23T05:28:02;20.70;67.60
11214;DHT22;5664;48.606;13.456;2022-11-23T05:30:28;20.70;67.60
11214;DHT22;5664;48.606;13.456;2022-11-23T05:32:53;20.70;67.70
11214;DHT22;5664;48.606;13.456;2022-11-23T05:35:23;20.60;67.70
11214;DHT22;5664;48.606;13.456;2022-11-23T05:37:49;20.60;67.80
11214;DHT22;5664;48.606;13.456;2022-11-23T05:40:14;20.60;67.90
11214;DHT22;5664;48.606;13.456;2022-11-23T05:42:40;20.60;68.00
11214;DHT22;5664;48.606;13.456;2022-11-23T05:45:05;20.50;68.10
11214;DHT22;5664;48.606;13.456;2022-11-23T05:47:31;20.50;68.20
11214;DHT22;5664;48.606;13.456;2022-11-23T05:49:56;20.50;68.30
11214;DHT22;5664;48.606;13.456;2022-11-23T05:52:23;20.50;68.50
11214;DHT22;5664;48.606;13.456;2022-11-23T05:54:48;20.50;68.50
11214;DHT22;5664;48.606;13.456;2022-11-23T05:57:14;20.50;68.50
11214;DHT22;5664;48.606;13.456;2022-11-23T05:59:40;20.50;68.60
11214;DHT22;5664;48.606;13.456;2022-11-23T06:02:05;20.50;68.50
11214;DHT22;5664;48.606;13.456;2022-11-23T06:04:31;20.50;68.50
11214;DHT22;5664;48.606;13.456;2022-11-23T06:06:56;20.50;68.60
11214;DHT22;5664;48.606;13.456;2022-11-23T06:09:27;20.50;68.60
11214;DHT22;5664;48.606;13.456;2022-11-23T06:11:53;20.50;69.40
11214;DHT22;5664;48.606;13.456;2022-11-23T06:14:18;20.50;68.60
11214;DHT22;5664;48.606;13.456;2022-11-23T06:16:44;20.50;68.60
11214;DHT22;5664;48.606;13.456;2022-11-23T06:19:09;20.50;68.60
11214;DHT22;5664;48.606;13.456;2022-11-23T06:21:35;20.50;68.60
11214;DHT22;5664;48.606;13.456;2022-11-23T06:24:00;20.50;68.60
11214;DHT22;5664;48.606;13.456;2022-11-23T06:26:26;20.50;68.70
11214;DHT22;5664;48.606;13.456;2022-11-23T06:28:51;20.50;68.70
11214;DHT22;5664;48.606;13.456;2022-11-23T06:31:17;20.50;68.80
11214;DHT22;5664;48.606;13.456;2022-11-23T06:33:42;20.50;68.80
11214;DHT22;5664;48.606;13.456;2022-11-23T06:36:08;20.50;68.80
11214;DHT22;5664;48.606;13.456;2022-11-23T06:38:34;20.40;68.70
11214;DHT22;5664;48.606;13.456;2022-11-23T06:40:59;20.40;68.70
11214;DHT22;5664;48.606;13.456;2022-11-23T06:43:26;20.40;68.80
11214;DHT22;5664;48.606;13.456;2022-11-23T06:45:52;20.40;68.80
11214;DHT22;5664;48.606;13.456;2022-11-23T06:48:17;20.40;68.90
11214;DHT22;5664;48.606;13.456;2022-11-23T06:50:43;20.40;68.90
11214;DHT22;5664;48.606;13.456;2022-11-23T06:53:08;20.40;69.00
11214;DHT22;5664;48.606;13.456;2022-11-23T06:55:36;20.40;69.00
11214;DHT22;5664;48.606;13.456;2022-11-23T06:58:02;20.30;69.00
11214;DHT22;5664;48.606;13.456;2022-11-23T07:00:28;20.30;69.00
11214;DHT22;5664;48.606;13.456;2022-11-23T07:02:53;20.40;69.20
11214;DHT22;5664;48.606;13.456;2022-11-23T07:05:19;20.30;69.20
11214;DHT22;5664;48.606;13.456;2022-11-23T07:07:45;20.30;69.20
11214;DHT22;5664;48.606;13.456;2022-11-23T07:10:10;20.30;69.30
11214;DHT22;5664;48.606;13.456;2022-11-23T07:12:36;20.30;69.30
11214;DHT22;5664;48.606;13.456;2022-11-23T07:15:01;20.30;69.40
11214;DHT22;5664;48.606;13.456;2022-11-23T07:17:27;20.30;69.50
11214;DHT22;5664;48.606;13.456;2022-11-23T07:19:52;20.20;69.50
11214;DHT22;5664;48.606;13.456;2022-11-23T07:22:18;20.20;69.50
11214;DHT22;5664;48.606;13.456;2022-11-23T07:24:43;20.20;69.50
11214;DHT22;5664;48.606;13.456;2022-11-23T07:27:09;20.20;69.50
11214;DHT22;5664;48.606;13.456;2022-11-23T07:29:34;20.20;69.50
11214;DHT22;5664;48.606;13.456;2022-11-23T07:31:59;20.20;69.60
11214;DHT22;5664;48.606;13.456;2022-11-23T07:34:28;20.20;69.60
11214;DHT22;5664;48.606;13.456;2022-11-23T07:36:53;20.20;69.70
11214;DHT22;5664;48.606;13.456;2022-11-23T07:39:19;20.20;69.80
11214;DHT22;5664;48.606;13.456;2022-11-23T07:41:47;20.20;69.80
11214;DHT22;5664;48.606;13.456;2022-11-23T07:44:12;20.20;69.90
11214;DHT22;5664;48.606;13.456;2022-11-23T07:46:38;20.10;69.80
11214;DHT22;5664;48.606;13.456;2022-11-23T07:49:03;20.10;69.80
11214;DHT22;5664;48.606;13.456;2022-11-23T07:51:28;20.10;69.80
11214;DHT22;5664;48.606;13.456;2022-11-23T07:53:54;20.10;69.90
11214;DHT22;5664;48.606;13.456;2022-11-23T07:56:19;20.10;69.90
11214;DHT22;5664;48.606;13.456;2022-11-23T07:58:45;20.10;69.90
11214;DHT22;5664;48.606;13.456;2022-11-23T08:01:14;20.10;69.90
11214;DHT22;5664;48.606;13.456;2022-11-23T08:03:42;20.10;70.00
11214;DHT22;5664;48.606;13.456;2022-11-23T08:06:09;20.10;70.00
11214;DHT22;5664;48.606;13.456;2022-11-23T08:08:35;20.10;70.00
11214;DHT22;5664;48.606;13.456;2022-11-23T08:11:01;20.10;70.10
11214;DHT22;5664;48.606;13.456;2022-11-23T08:13:26;20.10;70.00
11214;DHT22;5664;48.606;13.456;2022-11-23T08:15:52;20.10;70.10
11214;DHT22;5664;48.606;13.456;2022-11-23T08:18:17;20.10;70.10
11214;DHT22;5664;48.606;13.456;2022-11-23T08:20:43;20.10;70.10
11214;DHT22;5664;48.606;13.456;2022-11-23T08:23:08;20.10;70.20
11214;DHT22;5664;48.606;13.456;2022-11-23T08:25:34;20.00;70.00
11214;DHT22;5664;48.606;13.456;2022-11-23T08:28:01;20.00;70.10
11214;DHT22;5664;48.606;13.456;2022-11-23T08:30:27;20.00;70.10
11214;DHT22;5664;48.606;13.456;2022-11-23T08:32:53;20.10;70.20
11214;DHT22;5664;48.606;13.456;2022-11-23T08:35:19;20.00;70.10
11214;DHT22;5664;48.606;13.456;2022-11-23T08:37:44;20.00;70.10
11214;DHT22;5664;48.606;13.456;2022-11-23T08:40:10;20.00;70.10
11214;DHT22;5664;48.606;13.456;2022-11-23T08:42:35;20.00;70.50
11214;DHT22;5664;48.606;13.456;2022-11-23T08:45:01;20.00;70.20
11214;DHT22;5664;48.606;13.456;2022-11-23T08:47:28;20.00;70.20
11214;DHT22;5664;48.606;13.456;2022-11-23T08:49:55;20.00;70.20
11214;DHT22;5664;48.606;13.456;2022-11-23T08:52:20;20.00;70.30
11214;DHT22;5664;48.606;13.456;2022-11-23T08:54:46;20.00;70.30
11214;DHT22;5664;48.606;13.456;2022-11-23T08:57:11;20.00;70.30
11214;DHT22;5664;48.606;13.456;2022-11-23T08:59:36;20.00;70.30
11214;DHT22;5664;48.606;13.456;2022-11-23T09:02:02;20.00;70.30
11214;DHT22;5664;48.606;13.456;2022-11-23T09:04:29;20.00;70.30
11214;DHT22;5664;48.606;13.456;2022-11-23T09:06:55;20.00;70.30
11214;DHT22;5664;48.606;13.456;2022-11-23T09:09:21;20.00;70.40
11214;DHT22;5664;48.606;13.456;2022-11-23T09:11:46;19.90;70.30
11214;DHT22;5664;48.606;13.456;2022-11-23T09:14:12;19.90;70.40
11214;DHT22;5664;48.606;13.456;2022-11-23T09:16:38;20.00;70.40
11214;DHT22;5664;48.606;13.456;2022-11-23T09:19:03;19.90;70.40
11214;DHT22;5664;48.606;13.456;2022-11-23T09:21:31;19.90;70.50
11214;DHT22;5664;48.606;13.456;2022-11-23T09:24:00;19.90;70.50
11214;DHT22;5664;48.606;13.456;2022-11-23T09:26:25;19.90;70.50
11214;DHT22;5664;48.606;13.456;2022-11-23T09:28:51;19.90;70.50
11214;DHT22;5664;48.606;13.456;2022-11-23T09:31:16;19.90;70.50
11214;DHT22;5664;48.606;13.456;2022-11-23T09:33:42;18.90;70.40
11214;DHT22;5664;48.606;13.456;2022-11-23T09:36:07;19.90;70.60
11214;DHT22;5664;48.606;13.456;2022-11-23T09:38:33;19.90;70.70
11214;DHT22;5664;48.606;13.456;2022-11-23T09:41:22;19.90;70.70
11214;DHT22;5664;48.606;13.456;2022-11-23T09:49:11;19.80;70.70
11214;DHT22;5664;48.606;13.456;2022-11-23T09:51:37;19.80;70.70
11214;DHT22;5664;48.606;13.456;2022-11-23T09:54:04;19.80;70.80
11214;DHT22;5664;48.606;13.456;2022-11-23T09:56:35;19.80;70.90
11214;DHT22;5664;48.606;13.456;2022-11-23T09:59:11;19.80;70.80
11214;DHT22;5664;48.606;13.456;2022-11-23T10:01:38;19.80;70.90
11214;DHT22;5664;48.606;13.456;2022-11-23T10:04:03;19.80;70.90
11214;DHT22;5664;48.606;13.456;2022-11-23T10:06:30;19.80;70.90
11214;DHT22;5664;48.606;13.456;2022-11-23T10:19:42;19.80;71.00
11214;DHT22;5664;48.606;13.456;2022-11-23T10:25:15;19.80;71.10
11214;DHT22;5664;48.606;13.456;2022-11-23T10:27:41;19.70;71.00
11214;DHT22;5664;48.606;13.456;2022-11-23T10:30:10;19.70;71.00
11214;DHT22;5664;48.606;13.456;2022-11-23T10:32:37;19.70;71.00
11214;DHT22;5664;48.606;13.456;2022-11-23T10:35:16;19.70;71.10
11214;DHT22;5664;48.606;13.456;2022-11-23T10:37:42;19.70;71.10
11214;DHT22;5664;48.606;13.456;2022-11-23T10:42:46;19.80;71.20
11214;DHT22;5664;48.606;13.456;2022-11-23T10:45:21;19.70;71.20
11214;DHT22;5664;48.606;13.456;2022-11-23T10:47:48;19.70;71.20
11214;DHT22;5664;48.606;13.456;2022-11-23T10:50:30;19.70;71.20
11214;DHT22;5664;48.606;13.456;2022-11-23T10:55:30;19.70;71.20
11214;DHT22;5664;48.606;13.456;2022-11-23T10:57:56;19.70;71.20
11214;DHT22;5664;48.606;13.456;2022-11-23T11:00:22;19.70;71.30
11214;DHT22;5664;48.606;13.456;2022-11-23T11:02:49;19.70;71.30
11214;DHT22;5664;48.606;13.456;2022-11-23T11:07:46;19.70;71.30
11214;DHT22;5664;48.606;13.456;2022-11-23T11:12:55;19.70;71.40
11214;DHT22;5664;48.606;13.456;2022-11-23T11:15:21;19.70;71.40
11214;DHT22;5664;48.606;13.456;2022-11-23T11:17:52;19.70;71.40
11214;DHT22;5664;48.606;13.456;2022-11-23T11:20:36;19.70;71.40
11214;DHT22;5664;48.606;13.456;2022-11-23T11:23:14;19.70;71.40
11214;DHT22;5664;48.606;13.456;2022-11-23T11:25:41;19.60;71.30
11214;DHT22;5664;48.606;13.456;2022-11-23T11:28:21;19.70;71.50
11214;DHT22;5664;48.606;13.456;2022-11-23T11:30:59;19.60;71.30
11214;DHT22;5664;48.606;13.456;2022-11-23T11:33:31;19.60;71.40
11214;DHT22;5664;48.606;13.456;2022-11-23T11:36:00;19.60;71.40
11214;DHT22;5664;48.606;13.456;2022-11-23T11:38:29;19.60;71.20
11214;DHT22;5664;48.606;13.456;2022-11-23T11:40:57;19.60;71.20
11214;DHT22;5664;48.606;13.456;2022-11-23T11:45:51;19.60;71.50
11214;DHT22;5664;48.606;13.456;2022-11-23T11:48:19;19.60;71.50
11214;DHT22;5664;48.606;13.456;2022-11-23T11:50:48;19.60;71.50
11214;DHT22;5664;48.606;13.456;2022-11-23T11:53:17;18.90;71.10
11214;DHT22;5664;48.606;13.456;2022-11-23T11:55:50;19.60;71.60
11214;DHT22;5664;48.606;13.456;2022-11-23T11:58:17;19.60;71.60
11214;DHT22;5664;48.606;13.456;2022-11-23T12:00:44;19.60;71.60
11214;DHT22;5664;48.606;13.456;2022-11-23T12:03:15;19.60;71.60
11214;DHT22;5664;48.606;13.456;2022-11-23T12:05:46;19.60;71.60
11214;DHT22;5664;48.606;13.456;2022-11-23T12:08:21;19.50;71.60
11214;DHT22;5664;48.606;13.456;2022-11-23T12:10:49;19.50;71.60
11214;DHT22;5664;48.606;13.456;2022-11-23T12:13:20;19.60;71.70
11214;DHT22;5664;48.606;13.456;2022-11-23T12:15:52;19.60;71.70
11214;DHT22;5664;48.606;13.456;2022-11-23T12:21:03;19.50;71.70
11214;DHT22;5664;48.606;13.456;2022-11-23T12:28:50;19.50;71.80
11214;DHT22;5664;48.606;13.456;2022-11-23T12:36:28;19.50;72.00
11214;DHT22;5664;48.606;13.456;2022-11-23T12:49:40;19.50;72.20
11214;DHT22;5664;48.606;13.456;2022-11-23T12:52:26;19.40;72.10
11214;DHT22;5664;48.606;13.456;2022-11-23T12:55:14;19.50;72.20
11214;DHT22;5664;48.606;13.456;2022-11-23T12:57:42;19.50;72.00
11214;DHT22;5664;48.606;13.456;2022-11-23T13:00:13;19.60;71.70
11214;DHT22;5664;48.606;13.456;2022-11-23T13:13:19;21.30;66.50
11214;DHT22;5664;48.606;13.456;2022-11-23T13:23:35;23.70;58.30
11214;DHT22;5664;48.606;13.456;2022-11-23T13:26:11;24.20;57.10
11214;DHT22;5664;48.606;13.456;2022-11-23T13:28:38;24.60;56.00
11214;DHT22;5664;48.606;13.456;2022-11-23T13:31:17;25.00;54.90
11214;DHT22;5664;48.606;13.456;2022-11-23T13:33:43;25.30;54.10
11214;DHT22;5664;48.606;13.456;2022-11-23T13:36:10;25.60;53.30
11214;DHT22;5664;48.606;13.456;2022-11-23T13:38:36;25.90;52.70
11214;DHT22;5664;48.606;13.456;2022-11-23T13:41:02;26.10;52.10
11214;DHT22;5664;48.606;13.456;2022-11-23T13:48:44;26.50;50.70
11214;DHT22;5664;48.606;13.456;2022-11-23T13:51:10;26.70;50.50
11214;DHT22;5664;48.606;13.456;2022-11-23T13:53:37;26.70;50.20
11214;DHT22;5664;48.606;13.456;2022-11-23T13:59:33;26.90;49.90
11214;DHT22;5664;48.606;13.456;2022-11-23T14:04:19;27.00;49.60
11214;DHT22;5664;48.606;13.456;2022-11-23T14:06:49;27.00;49.40
11214;DHT22;5664;48.606;13.456;2022-11-23T14:14:32;27.10;49.30
11214;DHT22;5664;48.606;13.456;2022-11-23T14:19:53;27.10;49.20
11214;DHT22;5664;48.606;13.456;2022-11-23T14:22:40;27.00;49.10
11214;DHT22;5664;48.606;13.456;2022-11-23T14:25:15;27.00;49.10
11214;DHT22;5664;48.606;13.456;2022-11-23T14:27:52;27.00;49.20
11214;DHT22;5664;48.606;13.456;2022-11-23T14:33:01;26.90;49.40
11214;DHT22;5664;48.606;13.456;2022-11-23T14:35:40;26.80;49.40
11214;DHT22;5664;48.606;13.456;2022-11-23T14:43:18;26.50;49.80
11214;DHT22;5664;48.606;13.456;2022-11-23T14:45:45;26.50;50.00
11214;DHT22;5664;48.606;13.456;2022-11-23T14:50:52;26.20;50.40
11214;DHT22;5664;48.606;13.456;2022-11-23T14:53:18;26.10;50.60
11214;DHT22;5664;48.606;13.456;2022-11-23T14:55:44;26.00;50.70
11214;DHT22;5664;48.606;13.456;2022-11-23T14:58:11;26.00;51.00
11214;DHT22;5664;48.606;13.456;2022-11-23T15:00:39;25.90;51.10
11214;DHT22;5664;48.606;13.456;2022-11-23T15:03:07;25.80;51.20
11214;DHT22;5664;48.606;13.456;2022-11-23T15:05:33;25.70;51.30
11214;DHT22;5664;48.606;13.456;2022-11-23T15:10:37;25.60;51.50
11214;DHT22;5664;48.606;13.456;2022-11-23T15:13:18;25.60;51.70
11214;DHT22;5664;48.606;13.456;2022-11-23T15:15:44;25.60;51.80
11214;DHT22;5664;48.606;13.456;2022-11-23T15:18:10;25.50;51.80
11214;DHT22;5664;48.606;13.456;2022-11-23T15:20:40;25.50;51.90
11214;DHT22;5664;48.606;13.456;2022-11-23T15:23:10;25.50;52.00
11214;DHT22;5664;48.606;13.456;2022-11-23T15:25:54;25.40;52.00
11214;DHT22;5664;48.606;13.456;2022-11-23T15:28:24;25.40;52.00
11214;DHT22;5664;48.606;13.456;2022-11-23T15:30:50;25.40;52.10
11214;DHT22;5664;48.606;13.456;2022-11-23T15:33:17;25.40;52.10
11214;DHT22;5664;48.606;13.456;2022-11-23T15:35:43;25.40;52.20
11214;DHT22;5664;48.606;13.456;2022-11-23T15:38:12;25.40;52.20
11214;DHT22;5664;48.606;13.456;2022-11-23T15:40:38;25.30;52.20
11214;DHT22;5664;48.606;13.456;2022-11-23T15:43:05;25.30;52.20
11214;DHT22;5664;48.606;13.456;2022-11-23T15:45:57;25.30;52.20
11214;DHT22;5664;48.606;13.456;2022-11-23T15:48:27;25.30;52.20
11214;DHT22;5664;48.606;13.456;2022-11-23T15:50:57;25.30;52.20
11214;DHT22;5664;48.606;13.456;2022-11-23T15:53:27;25.30;52.20
11214;DHT22;5664;48.606;13.456;2022-11-23T15:55:53;25.30;52.20
11214;DHT22;5664;48.606;13.456;2022-11-23T15:58:21;25.30;52.20
11214;DHT22;5664;48.606;13.456;2022-11-23T16:00:54;25.30;52.20
11214;DHT22;5664;48.606;13.456;2022-11-23T16:03:25;25.30;52.30
11214;DHT22;5664;48.606;13.456;2022-11-23T16:08:36;25.30;52.30
11214;DHT22;5664;48.606;13.456;2022-11-23T16:11:02;25.30;52.30
11214;DHT22;5664;48.606;13.456;2022-11-23T16:13:38;25.20;52.30
11214;DHT22;5664;48.606;13.456;2022-11-23T16:16:04;25.20;52.30
11214;DHT22;5664;48.606;13.456;2022-11-23T16:18:33;25.20;52.30
11214;DHT22;5664;48.606;13.456;2022-11-23T16:20:59;25.20;52.30
11214;DHT22;5664;48.606;13.456;2022-11-23T16:26:08;25.20;52.30
11214;DHT22;5664;48.606;13.456;2022-11-23T16:28:53;25.20;52.40
11214;DHT22;5664;48.606;13.456;2022-11-23T16:31:24;25.20;52.40
11214;DHT22;5664;48.606;13.456;2022-11-23T16:33:51;25.10;52.50
11214;DHT22;5664;48.606;13.456;2022-11-23T16:36:16;25.10;52.50
11214;DHT22;5664;48.606;13.456;2022-11-23T16:38:41;25.10;52.50
11214;DHT22;5664;48.606;13.456;2022-11-23T16:41:07;25.10;52.60
11214;DHT22;5664;48.606;13.456;2022-11-23T16:43:33;25.10;52.70
11214;DHT22;5664;48.606;13.456;2022-11-23T16:45:59;25.10;52.80
11214;DHT22;5664;48.606;13.456;2022-11-23T16:50:51;25.00;52.80
11214;DHT22;5664;48.606;13.456;2022-11-23T16:53:17;25.00;52.80
11214;DHT22;5664;48.606;13.456;2022-11-23T16:55:46;25.00;52.90
11214;DHT22;5664;48.606;13.456;2022-11-23T16:58:14;25.00;53.00
11214;DHT22;5664;48.606;13.456;2022-11-23T17:00:40;25.00;53.00
11214;DHT22;5664;48.606;13.456;2022-11-23T17:03:09;25.00;53.00
11214;DHT22;5664;48.606;13.456;2022-11-23T17:05:37;25.00;53.70
11214;DHT22;5664;48.606;13.456;2022-11-23T17:08:02;25.00;53.20
11214;DHT22;5664;48.606;13.456;2022-11-23T17:10:28;25.00;53.30
11214;DHT22;5664;48.606;13.456;2022-11-23T17:12:53;25.00;53.40
11214;DHT22;5664;48.606;13.456;2022-11-23T17:15:20;25.00;53.40
11214;DHT22;5664;48.606;13.456;2022-11-23T17:17:46;25.00;53.40
11214;DHT22;5664;48.606;13.456;2022-11-23T17:20:12;25.10;53.50
11214;DHT22;5664;48.606;13.456;2022-11-23T17:22:38;25.00;53.50
11214;DHT22;5664;48.606;13.456;2022-11-23T17:25:04;25.00;53.50
11214;DHT22;5664;48.606;13.456;2022-11-23T17:27:29;25.00;53.50
11214;DHT22;5664;48.606;13.456;2022-11-23T17:29:57;25.00;53.50